sensor_id;sensor_type;location;lat;lon;timestamp;P1;durP1;ratioP1;P2;durP2;ratioP2
26582;SDS011;14230;45.382;10.998;2022-08-25T00:00:12;6.80;;;3.03;;
26582;SDS011;14230;45.382;10.998;2022-08-25T00:02:40;7.97;;;3.08;;
26582;SDS011;14230;45.382;10.998;2022-08-25T00:05:26;4.32;;;2.75;;
26582;SDS011;14230;45.382;10.998;2022-08-25T00:07:59;4.65;;;3.08;;
26582;SDS011;14230;45.382;10.998;2022-08-25T00:10:28;3.35;;;2.25;;
26582;SDS011;14230;45.382;10.998;2022-08-25T00:12:56;7.10;;;2.88;;
26582;SDS011;14230;45.382;10.998;2022-08-25T00:15:23;7.90;;;3.13;;
26582;SDS011;14230;45.382;10.998;2022-08-25T00:17:51;4.40;;;2.42;;
26582;SDS011;14230;45.382;10.998;2022-08-25T00:20:19;6.82;;;3.00;;
26582;SDS011;14230;45.382;10.998;2022-08-25T00:25:18;5.88;;;2.42;;
26582;SDS011;14230;45.382;10.998;2022-08-25T00:27:46;4.35;;;2.50;;
26582;SDS011;14230;45.382;10.998;2022-08-25T00:30:14;5.80;;;3.10;;
26582;SDS011;14230;45.382;10.998;2022-08-25T00:32:43;5.20;;;2.58;;
26582;SDS011;14230;45.382;10.998;2022-08-25T00:35:23;10.48;;;3.00;;
26582;SDS011;14230;45.382;10.998;2022-08-25T00:37:51;5.70;;;2.50;;
26582;SDS011;14230;45.382;10.998;2022-08-25T00:40:19;7.20;;;2.33;;
26582;SDS011;14230;45.382;10.998;2022-08-25T00:42:47;5.50;;;2.65;;
26582;SDS011;14230;45.382;10.998;2022-08-25T00:45:15;12.15;;;2.60;;
26582;SDS011;14230;45.382;10.998;2022-08-25T00:47:44;7.22;;;2.90;;
26582;SDS011;14230;45.382;10.998;2022-08-25T00:50:11;6.20;;;2.40;;
26582;SDS011;14230;45.382;10.998;2022-08-25T00:52:43;4.80;;;2.10;;
26582;SDS011;14230;45.382;10.998;2022-08-25T00:55:26;4.40;;;2.50;;
26582;SDS011;14230;45.382;10.998;2022-08-25T00:57:59;2.92;;;2.45;;
26582;SDS011;14230;45.382;10.998;2022-08-25T01:00:34;6.32;;;2.40;;
26582;SDS011;14230;45.382;10.998;2022-08-25T01:03:07;3.25;;;2.40;;
26582;SDS011;14230;45.382;10.998;2022-08-25T01:05:35;6.78;;;2.80;;
26582;SDS011;14230;45.382;10.998;2022-08-25T01:08:04;5.32;;;2.60;;
26582;SDS011;14230;45.382;10.998;2022-08-25T01:10:38;6.60;;;2.80;;
26582;SDS011;14230;45.382;10.998;2022-08-25T01:13:55;8.25;;;2.95;;
26582;SDS011;14230;45.382;10.998;2022-08-25T01:15:59;2.95;;;2.00;;
26582;SDS011;14230;45.382;10.998;2022-08-25T01:18:27;4.55;;;2.33;;
26582;SDS011;14230;45.382;10.998;2022-08-25T01:20:56;6.38;;;3.25;;
26582;SDS011;14230;45.382;10.998;2022-08-25T01:23:25;3.28;;;2.72;;
26582;SDS011;14230;45.382;10.998;2022-08-25T01:26:13;5.70;;;3.33;;
26582;SDS011;14230;45.382;10.998;2022-08-25T01:28:51;3.30;;;2.53;;
26582;SDS011;14230;45.382;10.998;2022-08-25T01:31:38;3.38;;;2.10;;
26582;SDS011;14230;45.382;10.998;2022-08-25T01:34:08;6.97;;;2.22;;
26582;SDS011;14230;45.382;10.998;2022-08-25T01:36:39;8.13;;;2.45;;
26582;SDS011;14230;45.382;10.998;2022-08-25T01:39:08;4.97;;;2.42;;
26582;SDS011;14230;45.382;10.998;2022-08-25T01:41:44;6.72;;;2.40;;
26582;SDS011;14230;45.382;10.998;2022-08-25T01:44:33;4.35;;;2.20;;
26582;SDS011;14230;45.382;10.998;2022-08-25T01:47:02;7.05;;;2.42;;
26582;SDS011;14230;45.382;10.998;2022-08-25T01:49:32;2.95;;;2.28;;
26582;SDS011;14230;45.382;10.998;2022-08-25T01:52:01;5.15;;;2.28;;
26582;SDS011;14230;45.382;10.998;2022-08-25T01:54:51;4.43;;;3.07;;
26582;SDS011;14230;45.382;10.998;2022-08-25T01:57:19;8.57;;;2.60;;
26582;SDS011;14230;45.382;10.998;2022-08-25T01:59:47;5.68;;;2.67;;
26582;SDS011;14230;45.382;10.998;2022-08-25T02:02:15;3.92;;;2.75;;
26582;SDS011;14230;45.382;10.998;2022-08-25T02:04:44;3.50;;;2.30;;
26582;SDS011;14230;45.382;10.998;2022-08-25T02:07:11;3.70;;;2.78;;
26582;SDS011;14230;45.382;10.998;2022-08-25T02:09:39;5.68;;;2.70;;
26582;SDS011;14230;45.382;10.998;2022-08-25T02:12:06;7.07;;;2.78;;
26582;SDS011;14230;45.382;10.998;2022-08-25T02:14:35;6.07;;;2.88;;
26582;SDS011;14230;45.382;10.998;2022-08-25T02:17:03;5.32;;;2.53;;
26582;SDS011;14230;45.382;10.998;2022-08-25T02:19:31;3.78;;;2.70;;
26582;SDS011;14230;45.382;10.998;2022-08-25T02:21:59;9.23;;;2.65;;
26582;SDS011;14230;45.382;10.998;2022-08-25T02:24:27;5.30;;;3.10;;
26582;SDS011;14230;45.382;10.998;2022-08-25T02:26:55;5.45;;;3.38;;
26582;SDS011;14230;45.382;10.998;2022-08-25T02:29:23;9.63;;;3.05;;
26582;SDS011;14230;45.382;10.998;2022-08-25T02:31:51;3.90;;;2.80;;
26582;SDS011;14230;45.382;10.998;2022-08-25T02:34:19;5.75;;;2.80;;
26582;SDS011;14230;45.382;10.998;2022-08-25T02:36:46;4.80;;;2.72;;
26582;SDS011;14230;45.382;10.998;2022-08-25T02:39:14;4.97;;;3.15;;
26582;SDS011;14230;45.382;10.998;2022-08-25T02:41:41;4.75;;;3.08;;
26582;SDS011;14230;45.382;10.998;2022-08-25T02:44:09;6.22;;;2.78;;
26582;SDS011;14230;45.382;10.998;2022-08-25T02:46:37;4.72;;;2.90;;
26582;SDS011;14230;45.382;10.998;2022-08-25T02:49:05;7.88;;;3.20;;
26582;SDS011;14230;45.382;10.998;2022-08-25T02:51:33;6.22;;;2.65;;
26582;SDS011;14230;45.382;10.998;2022-08-25T02:54:02;6.95;;;2.90;;
26582;SDS011;14230;45.382;10.998;2022-08-25T02:56:31;8.68;;;3.38;;
26582;SDS011;14230;45.382;10.998;2022-08-25T02:58:59;5.43;;;3.10;;
26582;SDS011;14230;45.382;10.998;2022-08-25T03:01:28;9.70;;;2.92;;
26582;SDS011;14230;45.382;10.998;2022-08-25T03:03:58;7.07;;;3.40;;
26582;SDS011;14230;45.382;10.998;2022-08-25T03:06:27;5.38;;;3.40;;
26582;SDS011;14230;45.382;10.998;2022-08-25T03:08:55;3.67;;;2.90;;
26582;SDS011;14230;45.382;10.998;2022-08-25T03:11:23;3.88;;;3.10;;
26582;SDS011;14230;45.382;10.998;2022-08-25T03:13:52;6.40;;;3.35;;
26582;SDS011;14230;45.382;10.998;2022-08-25T03:16:22;5.80;;;3.38;;
26582;SDS011;14230;45.382;10.998;2022-08-25T03:18:54;7.10;;;3.92;;
26582;SDS011;14230;45.382;10.998;2022-08-25T03:21:23;5.43;;;3.55;;
26582;SDS011;14230;45.382;10.998;2022-08-25T03:23:51;9.05;;;3.50;;
26582;SDS011;14230;45.382;10.998;2022-08-25T03:26:19;5.07;;;3.40;;
26582;SDS011;14230;45.382;10.998;2022-08-25T03:29:05;5.38;;;3.70;;
26582;SDS011;14230;45.382;10.998;2022-08-25T03:31:33;5.05;;;3.47;;
26582;SDS011;14230;45.382;10.998;2022-08-25T03:34:01;5.40;;;3.63;;
26582;SDS011;14230;45.382;10.998;2022-08-25T03:36:29;6.88;;;3.35;;
26582;SDS011;14230;45.382;10.998;2022-08-25T03:38:59;5.72;;;3.15;;
26582;SDS011;14230;45.382;10.998;2022-08-25T03:41:28;4.50;;;3.05;;
26582;SDS011;14230;45.382;10.998;2022-08-25T03:43:58;7.55;;;3.70;;
26582;SDS011;14230;45.382;10.998;2022-08-25T03:46:31;8.07;;;3.10;;
26582;SDS011;14230;45.382;10.998;2022-08-25T03:49:20;4.97;;;3.15;;
26582;SDS011;14230;45.382;10.998;2022-08-25T03:51:50;6.22;;;3.80;;
26582;SDS011;14230;45.382;10.998;2022-08-25T03:54:21;4.07;;;3.33;;
26582;SDS011;14230;45.382;10.998;2022-08-25T03:56:51;4.83;;;3.30;;
26582;SDS011;14230;45.382;10.998;2022-08-25T03:59:18;6.05;;;3.67;;
26582;SDS011;14230;45.382;10.998;2022-08-25T04:01:46;3.95;;;3.53;;
26582;SDS011;14230;45.382;10.998;2022-08-25T04:04:20;6.53;;;3.22;;
26582;SDS011;14230;45.382;10.998;2022-08-25T04:06:48;10.10;;;3.75;;
26582;SDS011;14230;45.382;10.998;2022-08-25T04:09:16;5.25;;;3.70;;
26582;SDS011;14230;45.382;10.998;2022-08-25T04:11:43;5.45;;;3.75;;
26582;SDS011;14230;45.382;10.998;2022-08-25T04:14:11;5.72;;;3.47;;
26582;SDS011;14230;45.382;10.998;2022-08-25T04:16:42;7.63;;;3.60;;
26582;SDS011;14230;45.382;10.998;2022-08-25T04:19:11;6.85;;;3.70;;
26582;SDS011;14230;45.382;10.998;2022-08-25T04:21:39;6.55;;;4.10;;
26582;SDS011;14230;45.382;10.998;2022-08-25T04:24:08;4.65;;;3.30;;
26582;SDS011;14230;45.382;10.998;2022-08-25T04:26:39;5.20;;;3.85;;
26582;SDS011;14230;45.382;10.998;2022-08-25T04:29:09;6.22;;;3.60;;
26582;SDS011;14230;45.382;10.998;2022-08-25T04:31:39;6.07;;;3.53;;
26582;SDS011;14230;45.382;10.998;2022-08-25T04:34:08;10.13;;;3.95;;
26582;SDS011;14230;45.382;10.998;2022-08-25T04:37:00;5.07;;;3.65;;
26582;SDS011;14230;45.382;10.998;2022-08-25T04:39:29;6.35;;;4.32;;
26582;SDS011;14230;45.382;10.998;2022-08-25T04:41:56;6.43;;;3.95;;
26582;SDS011;14230;45.382;10.998;2022-08-25T04:44:26;6.35;;;3.83;;
26582;SDS011;14230;45.382;10.998;2022-08-25T04:46:55;13.13;;;4.13;;
26582;SDS011;14230;45.382;10.998;2022-08-25T04:49:23;18.15;;;4.55;;
26582;SDS011;14230;45.382;10.998;2022-08-25T04:51:51;8.55;;;4.78;;
26582;SDS011;14230;45.382;10.998;2022-08-25T04:54:18;6.55;;;4.82;;
26582;SDS011;14230;45.382;10.998;2022-08-25T04:56:49;8.40;;;5.05;;
26582;SDS011;14230;45.382;10.998;2022-08-25T04:59:24;9.82;;;5.50;;
26582;SDS011;14230;45.382;10.998;2022-08-25T05:01:56;6.53;;;5.40;;
26582;SDS011;14230;45.382;10.998;2022-08-25T05:06:56;10.80;;;5.55;;
26582;SDS011;14230;45.382;10.998;2022-08-25T05:09:24;7.13;;;5.75;;
26582;SDS011;14230;45.382;10.998;2022-08-25T05:11:54;9.13;;;5.93;;
26582;SDS011;14230;45.382;10.998;2022-08-25T05:14:22;19.50;;;14.23;;
26582;SDS011;14230;45.382;10.998;2022-08-25T05:16:55;7.10;;;6.28;;
26582;SDS011;14230;45.382;10.998;2022-08-25T05:19:23;11.93;;;6.28;;
26582;SDS011;14230;45.382;10.998;2022-08-25T05:21:52;12.30;;;6.35;;
26582;SDS011;14230;45.382;10.998;2022-08-25T05:24:23;11.30;;;5.70;;
26582;SDS011;14230;45.382;10.998;2022-08-25T05:26:51;8.02;;;6.97;;
26582;SDS011;14230;45.382;10.998;2022-08-25T05:29:19;7.25;;;6.53;;
26582;SDS011;14230;45.382;10.998;2022-08-25T05:31:47;7.97;;;6.70;;
26582;SDS011;14230;45.382;10.998;2022-08-25T05:34:17;13.85;;;7.38;;
26582;SDS011;14230;45.382;10.998;2022-08-25T05:36:46;9.90;;;6.78;;
26582;SDS011;14230;45.382;10.998;2022-08-25T05:39:14;7.25;;;6.55;;
26582;SDS011;14230;45.382;10.998;2022-08-25T05:41:42;8.50;;;7.07;;
26582;SDS011;14230;45.382;10.998;2022-08-25T05:44:10;10.07;;;6.38;;
26582;SDS011;14230;45.382;10.998;2022-08-25T05:46:38;12.27;;;9.00;;
26582;SDS011;14230;45.382;10.998;2022-08-25T05:49:06;14.95;;;7.93;;
26582;SDS011;14230;45.382;10.998;2022-08-25T05:51:33;7.00;;;6.30;;
26582;SDS011;14230;45.382;10.998;2022-08-25T05:54:01;13.90;;;6.35;;
26582;SDS011;14230;45.382;10.998;2022-08-25T05:56:29;8.25;;;6.70;;
26582;SDS011;14230;45.382;10.998;2022-08-25T05:58:57;6.47;;;5.80;;
26582;SDS011;14230;45.382;10.998;2022-08-25T06:01:25;24.20;;;15.48;;
26582;SDS011;14230;45.382;10.998;2022-08-25T06:04:16;12.73;;;9.63;;
26582;SDS011;14230;45.382;10.998;2022-08-25T06:06:44;8.05;;;5.65;;
26582;SDS011;14230;45.382;10.998;2022-08-25T06:09:12;9.63;;;5.10;;
26582;SDS011;14230;45.382;10.998;2022-08-25T06:11:39;12.63;;;4.72;;
26582;SDS011;14230;45.382;10.998;2022-08-25T06:14:07;5.25;;;4.15;;
26582;SDS011;14230;45.382;10.998;2022-08-25T06:16:36;9.30;;;4.60;;
26582;SDS011;14230;45.382;10.998;2022-08-25T06:19:05;5.55;;;3.85;;
26582;SDS011;14230;45.382;10.998;2022-08-25T06:21:34;7.32;;;3.60;;
26582;SDS011;14230;45.382;10.998;2022-08-25T06:24:05;11.57;;;3.80;;
26582;SDS011;14230;45.382;10.998;2022-08-25T06:26:39;16.73;;;6.13;;
26582;SDS011;14230;45.382;10.998;2022-08-25T06:29:06;7.57;;;3.50;;
26582;SDS011;14230;45.382;10.998;2022-08-25T06:31:36;11.05;;;4.30;;
26582;SDS011;14230;45.382;10.998;2022-08-25T06:34:04;8.00;;;4.38;;
26582;SDS011;14230;45.382;10.998;2022-08-25T06:36:32;7.72;;;3.47;;
26582;SDS011;14230;45.382;10.998;2022-08-25T06:39:00;7.10;;;3.63;;
26582;SDS011;14230;45.382;10.998;2022-08-25T06:41:27;7.20;;;2.95;;
26582;SDS011;14230;45.382;10.998;2022-08-25T06:44:03;12.38;;;5.10;;
26582;SDS011;14230;45.382;10.998;2022-08-25T06:46:31;3.25;;;2.80;;
26582;SDS011;14230;45.382;10.998;2022-08-25T06:49:05;7.43;;;4.53;;
26582;SDS011;14230;45.382;10.998;2022-08-25T06:51:34;4.15;;;3.72;;
26582;SDS011;14230;45.382;10.998;2022-08-25T06:54:03;8.15;;;2.50;;
26582;SDS011;14230;45.382;10.998;2022-08-25T06:56:36;3.85;;;2.35;;
26582;SDS011;14230;45.382;10.998;2022-08-25T06:59:05;2.75;;;2.03;;
26582;SDS011;14230;45.382;10.998;2022-08-25T07:01:35;5.47;;;2.58;;
26582;SDS011;14230;45.382;10.998;2022-08-25T07:04:04;4.72;;;2.08;;
26582;SDS011;14230;45.382;10.998;2022-08-25T07:06:39;4.85;;;1.95;;
26582;SDS011;14230;45.382;10.998;2022-08-25T07:09:07;3.70;;;2.40;;
26582;SDS011;14230;45.382;10.998;2022-08-25T07:11:35;3.50;;;2.38;;
26582;SDS011;14230;45.382;10.998;2022-08-25T07:14:04;6.45;;;2.72;;
26582;SDS011;14230;45.382;10.998;2022-08-25T07:16:33;3.00;;;2.20;;
26582;SDS011;14230;45.382;10.998;2022-08-25T07:19:03;7.18;;;2.50;;
26582;SDS011;14230;45.382;10.998;2022-08-25T07:21:35;4.38;;;2.80;;
26582;SDS011;14230;45.382;10.998;2022-08-25T07:24:06;6.40;;;2.88;;
26582;SDS011;14230;45.382;10.998;2022-08-25T07:26:37;4.32;;;2.47;;
26582;SDS011;14230;45.382;10.998;2022-08-25T07:29:16;2.58;;;2.13;;
26582;SDS011;14230;45.382;10.998;2022-08-25T07:31:45;7.10;;;2.75;;
26582;SDS011;14230;45.382;10.998;2022-08-25T07:34:14;5.95;;;2.40;;
26582;SDS011;14230;45.382;10.998;2022-08-25T07:37:01;5.28;;;2.83;;
26582;SDS011;14230;45.382;10.998;2022-08-25T07:39:32;4.38;;;2.40;;
26582;SDS011;14230;45.382;10.998;2022-08-25T07:42:00;6.78;;;2.72;;
26582;SDS011;14230;45.382;10.998;2022-08-25T07:44:28;7.55;;;2.45;;
26582;SDS011;14230;45.382;10.998;2022-08-25T07:46:55;6.93;;;3.63;;
26582;SDS011;14230;45.382;10.998;2022-08-25T07:49:23;4.28;;;2.17;;
26582;SDS011;14230;45.382;10.998;2022-08-25T07:52:01;9.82;;;2.80;;
26582;SDS011;14230;45.382;10.998;2022-08-25T07:54:33;8.80;;;3.13;;
26582;SDS011;14230;45.382;10.998;2022-08-25T07:57:07;3.95;;;2.22;;
26582;SDS011;14230;45.382;10.998;2022-08-25T07:59:41;3.88;;;2.30;;
26582;SDS011;14230;45.382;10.998;2022-08-25T08:02:10;9.00;;;2.92;;
26582;SDS011;14230;45.382;10.998;2022-08-25T08:04:51;4.80;;;3.35;;
26582;SDS011;14230;45.382;10.998;2022-08-25T08:07:20;6.63;;;3.22;;
26582;SDS011;14230;45.382;10.998;2022-08-25T08:10:10;10.75;;;3.17;;
26582;SDS011;14230;45.382;10.998;2022-08-25T08:12:59;10.30;;;3.33;;
26582;SDS011;14230;45.382;10.998;2022-08-25T08:15:28;14.05;;;4.22;;
26582;SDS011;14230;45.382;10.998;2022-08-25T08:17:56;10.73;;;3.55;;
26582;SDS011;14230;45.382;10.998;2022-08-25T08:20:25;6.88;;;2.70;;
26582;SDS011;14230;45.382;10.998;2022-08-25T08:22:54;3.92;;;2.75;;
26582;SDS011;14230;45.382;10.998;2022-08-25T08:25:23;6.53;;;4.78;;
26582;SDS011;14230;45.382;10.998;2022-08-25T08:27:54;6.73;;;2.90;;
26582;SDS011;14230;45.382;10.998;2022-08-25T08:30:22;8.30;;;3.55;;
26582;SDS011;14230;45.382;10.998;2022-08-25T08:32:52;6.18;;;2.70;;
26582;SDS011;14230;45.382;10.998;2022-08-25T08:35:38;10.77;;;5.70;;
26582;SDS011;14230;45.382;10.998;2022-08-25T08:38:07;5.47;;;2.60;;
26582;SDS011;14230;45.382;10.998;2022-08-25T08:40:47;5.95;;;2.90;;
26582;SDS011;14230;45.382;10.998;2022-08-25T08:52:43;11.73;;;10.52;;
26582;SDS011;14230;45.382;10.998;2022-08-25T08:55:30;5.10;;;4.28;;
26582;SDS011;14230;45.382;10.998;2022-08-25T08:58:06;6.68;;;3.90;;
26582;SDS011;14230;45.382;10.998;2022-08-25T09:00:42;5.90;;;3.47;;
26582;SDS011;14230;45.382;10.998;2022-08-25T09:03:32;6.20;;;5.18;;
26582;SDS011;14230;45.382;10.998;2022-08-25T09:06:11;9.20;;;2.75;;
26582;SDS011;14230;45.382;10.998;2022-08-25T09:08:48;4.35;;;2.53;;
26582;SDS011;14230;45.382;10.998;2022-08-25T09:19:36;12.00;;;5.95;;
26582;SDS011;14230;45.382;10.998;2022-08-25T09:31:12;3.33;;;2.60;;
26582;SDS011;14230;45.382;10.998;2022-08-25T09:33:56;7.28;;;2.15;;
26582;SDS011;14230;45.382;10.998;2022-08-25T09:36:28;3.38;;;1.83;;
26582;SDS011;14230;45.382;10.998;2022-08-25T09:39:04;3.45;;;1.70;;
26582;SDS011;14230;45.382;10.998;2022-08-25T09:49:38;3.25;;;1.77;;
26582;SDS011;14230;45.382;10.998;2022-08-25T09:54:52;5.43;;;1.80;;
26582;SDS011;14230;45.382;10.998;2022-08-25T09:57:33;7.55;;;1.90;;
26582;SDS011;14230;45.382;10.998;2022-08-25T10:02:40;4.45;;;1.75;;
26582;SDS011;14230;45.382;10.998;2022-08-25T10:05:20;12.35;;;2.30;;
26582;SDS011;14230;45.382;10.998;2022-08-25T10:07:54;6.22;;;2.42;;
26582;SDS011;14230;45.382;10.998;2022-08-25T10:13:00;6.43;;;2.13;;
26582;SDS011;14230;45.382;10.998;2022-08-25T10:15:33;6.05;;;2.10;;
26582;SDS011;14230;45.382;10.998;2022-08-25T10:21:08;3.50;;;2.15;;
26582;SDS011;14230;45.382;10.998;2022-08-25T10:23:47;3.15;;;1.77;;
26582;SDS011;14230;45.382;10.998;2022-08-25T10:40:35;5.40;;;1.52;;
26582;SDS011;14230;45.382;10.998;2022-08-25T10:43:35;4.25;;;1.80;;
26582;SDS011;14230;45.382;10.998;2022-08-25T10:54:02;4.68;;;1.83;;
26582;SDS011;14230;45.382;10.998;2022-08-25T10:57:02;8.38;;;3.83;;
26582;SDS011;14230;45.382;10.998;2022-08-25T11:02:32;4.55;;;2.05;;
26582;SDS011;14230;45.382;10.998;2022-08-25T11:05:11;2.13;;;1.92;;
26582;SDS011;14230;45.382;10.998;2022-08-25T11:07:52;3.47;;;1.50;;
26582;SDS011;14230;45.382;10.998;2022-08-25T11:10:37;4.43;;;1.83;;
26582;SDS011;14230;45.382;10.998;2022-08-25T11:13:19;4.22;;;2.00;;
26582;SDS011;14230;45.382;10.998;2022-08-25T11:15:53;4.95;;;2.17;;
26582;SDS011;14230;45.382;10.998;2022-08-25T11:18:45;3.58;;;2.17;;
26582;SDS011;14230;45.382;10.998;2022-08-25T11:22:11;2.17;;;1.85;;
26582;SDS011;14230;45.382;10.998;2022-08-25T11:26:55;3.90;;;2.05;;
26582;SDS011;14230;45.382;10.998;2022-08-25T11:29:30;3.92;;;2.25;;
26582;SDS011;14230;45.382;10.998;2022-08-25T11:32:02;4.57;;;2.33;;
26582;SDS011;14230;45.382;10.998;2022-08-25T11:34:31;4.95;;;1.95;;
26582;SDS011;14230;45.382;10.998;2022-08-25T11:37:36;3.63;;;2.28;;
26582;SDS011;14230;45.382;10.998;2022-08-25T11:45:25;7.22;;;2.88;;
26582;SDS011;14230;45.382;10.998;2022-08-25T11:48:00;4.18;;;2.38;;
26582;SDS011;14230;45.382;10.998;2022-08-25T11:53:32;6.97;;;2.70;;
26582;SDS011;14230;45.382;10.998;2022-08-25T11:56:08;4.05;;;3.00;;
26582;SDS011;14230;45.382;10.998;2022-08-25T11:58:42;2.75;;;2.40;;
26582;SDS011;14230;45.382;10.998;2022-08-25T12:09:33;4.03;;;2.75;;
26582;SDS011;14230;45.382;10.998;2022-08-25T12:29:14;4.93;;;2.70;;
26582;SDS011;14230;45.382;10.998;2022-08-25T12:37:33;5.43;;;2.42;;
26582;SDS011;14230;45.382;10.998;2022-08-25T12:40:03;8.15;;;2.95;;
26582;SDS011;14230;45.382;10.998;2022-08-25T12:42:37;5.22;;;2.42;;
26582;SDS011;14230;45.382;10.998;2022-08-25T12:51:17;7.13;;;2.78;;
26582;SDS011;14230;45.382;10.998;2022-08-25T12:54:37;3.38;;;3.08;;
26582;SDS011;14230;45.382;10.998;2022-08-25T12:56:40;6.50;;;2.92;;
26582;SDS011;14230;45.382;10.998;2022-08-25T12:59:15;9.27;;;2.80;;
26582;SDS011;14230;45.382;10.998;2022-08-25T13:16:01;9.20;;;2.40;;
26582;SDS011;14230;45.382;10.998;2022-08-25T13:18:33;6.18;;;2.90;;
26582;SDS011;14230;45.382;10.998;2022-08-25T13:23:42;6.43;;;3.05;;
26582;SDS011;14230;45.382;10.998;2022-08-25T13:26:16;4.18;;;2.85;;
26582;SDS011;14230;45.382;10.998;2022-08-25T13:28:54;3.55;;;2.72;;
26582;SDS011;14230;45.382;10.998;2022-08-25T13:31:32;3.05;;;2.75;;
26582;SDS011;14230;45.382;10.998;2022-08-25T13:34:04;3.30;;;3.00;;
26582;SDS011;14230;45.382;10.998;2022-08-25T13:36:44;4.45;;;2.67;;
26582;SDS011;14230;45.382;10.998;2022-08-25T13:39:32;7.82;;;5.93;;
26582;SDS011;14230;45.382;10.998;2022-08-25T13:42:20;5.00;;;3.05;;
26582;SDS011;14230;45.382;10.998;2022-08-25T13:44:55;8.13;;;3.08;;
26582;SDS011;14230;45.382;10.998;2022-08-25T13:50:19;7.10;;;3.92;;
26582;SDS011;14230;45.382;10.998;2022-08-25T13:53:09;6.80;;;2.90;;
26582;SDS011;14230;45.382;10.998;2022-08-25T13:55:54;5.22;;;2.92;;
26582;SDS011;14230;45.382;10.998;2022-08-25T13:58:26;8.80;;;2.60;;
26582;SDS011;14230;45.382;10.998;2022-08-25T14:04:19;9.13;;;5.15;;
26582;SDS011;14230;45.382;10.998;2022-08-25T14:10:01;6.68;;;2.72;;
26582;SDS011;14230;45.382;10.998;2022-08-25T14:12:32;4.80;;;2.88;;
26582;SDS011;14230;45.382;10.998;2022-08-25T14:15:02;3.28;;;2.90;;
26582;SDS011;14230;45.382;10.998;2022-08-25T14:17:30;4.53;;;2.40;;
26582;SDS011;14230;45.382;10.998;2022-08-25T14:20:16;7.15;;;2.67;;
26582;SDS011;14230;45.382;10.998;2022-08-25T14:22:58;6.68;;;3.22;;
26582;SDS011;14230;45.382;10.998;2022-08-25T14:25:36;4.28;;;3.30;;
26582;SDS011;14230;45.382;10.998;2022-08-25T14:30:41;6.25;;;3.03;;
26582;SDS011;14230;45.382;10.998;2022-08-25T14:33:12;8.80;;;5.13;;
26582;SDS011;14230;45.382;10.998;2022-08-25T14:35:42;8.75;;;2.90;;
26582;SDS011;14230;45.382;10.998;2022-08-25T14:38:13;8.32;;;3.58;;
26582;SDS011;14230;45.382;10.998;2022-08-25T14:40:43;8.27;;;3.08;;
26582;SDS011;14230;45.382;10.998;2022-08-25T14:43:12;10.88;;;2.90;;
26582;SDS011;14230;45.382;10.998;2022-08-25T14:45:41;3.58;;;2.50;;
26582;SDS011;14230;45.382;10.998;2022-08-25T14:48:25;2.23;;;2.00;;
26582;SDS011;14230;45.382;10.998;2022-08-25T14:50:56;6.40;;;2.70;;
26582;SDS011;14230;45.382;10.998;2022-08-25T14:53:26;10.32;;;3.38;;
26582;SDS011;14230;45.382;10.998;2022-08-25T14:55:54;11.88;;;2.97;;
26582;SDS011;14230;45.382;10.998;2022-08-25T14:58:25;5.75;;;2.63;;
26582;SDS011;14230;45.382;10.998;2022-08-25T15:01:00;5.72;;;2.80;;
26582;SDS011;14230;45.382;10.998;2022-08-25T15:03:31;4.38;;;2.75;;
26582;SDS011;14230;45.382;10.998;2022-08-25T15:06:03;13.13;;;3.13;;
26582;SDS011;14230;45.382;10.998;2022-08-25T15:08:32;7.22;;;2.60;;
26582;SDS011;14230;45.382;10.998;2022-08-25T15:11:18;12.88;;;2.70;;
26582;SDS011;14230;45.382;10.998;2022-08-25T15:13:47;4.10;;;2.83;;
26582;SDS011;14230;45.382;10.998;2022-08-25T15:16:35;7.88;;;2.92;;
26582;SDS011;14230;45.382;10.998;2022-08-25T15:19:09;6.25;;;2.55;;
26582;SDS011;14230;45.382;10.998;2022-08-25T15:21:41;6.35;;;2.75;;
26582;SDS011;14230;45.382;10.998;2022-08-25T15:24:11;5.28;;;2.83;;
26582;SDS011;14230;45.382;10.998;2022-08-25T15:29:12;7.32;;;2.40;;
26582;SDS011;14230;45.382;10.998;2022-08-25T15:31:41;3.80;;;2.60;;
26582;SDS011;14230;45.382;10.998;2022-08-25T15:34:09;4.03;;;2.40;;
26582;SDS011;14230;45.382;10.998;2022-08-25T15:36:38;2.85;;;2.55;;
26582;SDS011;14230;45.382;10.998;2022-08-25T15:39:07;6.10;;;2.85;;
26582;SDS011;14230;45.382;10.998;2022-08-25T15:41:36;4.45;;;2.40;;
26582;SDS011;14230;45.382;10.998;2022-08-25T15:44:04;4.28;;;2.92;;
26582;SDS011;14230;45.382;10.998;2022-08-25T15:46:33;3.72;;;2.47;;
26582;SDS011;14230;45.382;10.998;2022-08-25T15:49:03;6.50;;;2.70;;
26582;SDS011;14230;45.382;10.998;2022-08-25T15:51:33;5.43;;;2.83;;
26582;SDS011;14230;45.382;10.998;2022-08-25T15:54:01;4.47;;;2.60;;
26582;SDS011;14230;45.382;10.998;2022-08-25T15:56:30;5.35;;;2.50;;
26582;SDS011;14230;45.382;10.998;2022-08-25T15:58:57;5.60;;;2.55;;
26582;SDS011;14230;45.382;10.998;2022-08-25T16:01:25;6.32;;;2.80;;
26582;SDS011;14230;45.382;10.998;2022-08-25T16:03:56;5.85;;;2.60;;
26582;SDS011;14230;45.382;10.998;2022-08-25T16:06:24;3.45;;;2.35;;
26582;SDS011;14230;45.382;10.998;2022-08-25T16:08:52;7.75;;;2.65;;
26582;SDS011;14230;45.382;10.998;2022-08-25T16:11:22;2.45;;;2.25;;
26582;SDS011;14230;45.382;10.998;2022-08-25T16:13:51;8.63;;;2.63;;
26582;SDS011;14230;45.382;10.998;2022-08-25T16:16:20;5.40;;;2.90;;
26582;SDS011;14230;45.382;10.998;2022-08-25T16:18:49;4.57;;;2.60;;
26582;SDS011;14230;45.382;10.998;2022-08-25T16:21:19;5.45;;;2.70;;
26582;SDS011;14230;45.382;10.998;2022-08-25T16:23:58;6.47;;;2.92;;
26582;SDS011;14230;45.382;10.998;2022-08-25T16:26:34;4.47;;;2.28;;
26582;SDS011;14230;45.382;10.998;2022-08-25T16:29:14;5.38;;;2.50;;
26582;SDS011;14230;45.382;10.998;2022-08-25T16:31:42;4.60;;;3.35;;
26582;SDS011;14230;45.382;10.998;2022-08-25T16:34:19;4.90;;;2.80;;
26582;SDS011;14230;45.382;10.998;2022-08-25T16:36:46;6.45;;;2.72;;
26582;SDS011;14230;45.382;10.998;2022-08-25T16:39:18;4.00;;;3.00;;
26582;SDS011;14230;45.382;10.998;2022-08-25T16:41:47;7.22;;;2.80;;
26582;SDS011;14230;45.382;10.998;2022-08-25T16:44:17;3.28;;;2.53;;
26582;SDS011;14230;45.382;10.998;2022-08-25T16:46:48;7.32;;;2.65;;
26582;SDS011;14230;45.382;10.998;2022-08-25T16:49:20;7.75;;;2.78;;
26582;SDS011;14230;45.382;10.998;2022-08-25T16:51:51;7.15;;;2.72;;
26582;SDS011;14230;45.382;10.998;2022-08-25T16:54:24;5.30;;;3.10;;
26582;SDS011;14230;45.382;10.998;2022-08-25T16:57:10;7.80;;;3.05;;
26582;SDS011;14230;45.382;10.998;2022-08-25T16:59:38;4.20;;;2.55;;
26582;SDS011;14230;45.382;10.998;2022-08-25T17:02:09;6.85;;;3.00;;
26582;SDS011;14230;45.382;10.998;2022-08-25T17:04:38;5.03;;;3.28;;
26582;SDS011;14230;45.382;10.998;2022-08-25T17:07:06;4.97;;;3.00;;
26582;SDS011;14230;45.382;10.998;2022-08-25T17:09:34;9.25;;;3.00;;
26582;SDS011;14230;45.382;10.998;2022-08-25T17:12:03;5.53;;;2.85;;
26582;SDS011;14230;45.382;10.998;2022-08-25T17:14:31;8.63;;;3.13;;
26582;SDS011;14230;45.382;10.998;2022-08-25T17:16:59;10.32;;;2.80;;
26582;SDS011;14230;45.382;10.998;2022-08-25T17:19:26;5.80;;;3.13;;
26582;SDS011;14230;45.382;10.998;2022-08-25T17:21:54;14.82;;;2.80;;
26582;SDS011;14230;45.382;10.998;2022-08-25T17:24:24;7.15;;;2.78;;
26582;SDS011;14230;45.382;10.998;2022-08-25T17:26:57;5.82;;;2.65;;
26582;SDS011;14230;45.382;10.998;2022-08-25T17:29:27;7.90;;;2.70;;
26582;SDS011;14230;45.382;10.998;2022-08-25T17:31:55;3.35;;;2.42;;
26582;SDS011;14230;45.382;10.998;2022-08-25T17:34:23;11.60;;;2.75;;
26582;SDS011;14230;45.382;10.998;2022-08-25T17:36:51;6.82;;;2.50;;